createdAt,value
2022-10-13T00:00:41.610Z,11.40
2022-10-13T00:03:08.933Z,11.83
2022-10-13T00:05:35.993Z,11.13
2022-10-13T00:08:02.560Z,12.50
2022-10-13T00:10:30.455Z,15.50
2022-10-13T00:12:56.999Z,10.67
2022-10-13T00:15:25.890Z,12.30
2022-10-13T00:17:52.573Z,15.13
2022-10-13T00:20:19.339Z,12.00
2022-10-13T00:22:46.040Z,10.77
2022-10-13T00:25:12.597Z,11.47
2022-10-13T00:27:39.210Z,10.73
2022-10-13T00:30:06.361Z,13.30
2022-10-13T00:32:33.149Z,8.43
2022-10-13T00:34:59.807Z,14.73
2022-10-13T00:37:26.402Z,12.47
2022-10-13T00:39:53.120Z,10.57
2022-10-13T00:42:26.259Z,13.07
2022-10-13T00:45:11.955Z,11.47
2022-10-13T00:47:44.863Z,12.37
2022-10-13T00:50:16.167Z,9.40
2022-10-13T00:52:45.552Z,9.77
2022-10-13T00:55:16.746Z,11.50
2022-10-13T00:57:46.671Z,11.60
2022-10-13T01:00:13.694Z,22.70
2022-10-13T01:02:40.496Z,10.47
2022-10-13T01:05:07.918Z,9.20
2022-10-13T01:07:35.856Z,11.70
2022-10-13T01:10:03.459Z,10.90
2022-10-13T01:12:56.001Z,11.60
2022-10-13T01:15:37.817Z,10.10
2022-10-13T01:18:33.868Z,10.53
2022-10-13T01:21:39.316Z,9.17
2022-10-13T01:24:30.631Z,9.30
2022-10-13T01:27:05.140Z,10.37
2022-10-13T01:29:59.673Z,9.70
2022-10-13T01:32:45.473Z,11.10
2022-10-13T01:35:18.508Z,9.40
2022-10-13T01:37:53.693Z,10.33
2022-10-13T01:40:32.377Z,9.67
2022-10-13T01:43:03.488Z,10.77
2022-10-13T01:45:47.315Z,11.20
2022-10-13T01:48:16.767Z,7.83
2022-10-13T01:50:47.889Z,8.40
2022-10-13T01:53:18.009Z,8.33
2022-10-13T01:55:54.938Z,11.27
2022-10-13T01:58:23.199Z,10.67
2022-10-13T02:01:28.519Z,8.97
2022-10-13T02:04:17.856Z,7.73
2022-10-13T02:07:11.345Z,7.13
2022-10-13T02:09:57.313Z,9.20
2022-10-13T02:12:39.805Z,8.30
2022-10-13T02:15:12.045Z,9.23
2022-10-13T02:17:40.245Z,11.23
2022-10-13T02:20:08.325Z,9.67
2022-10-13T02:22:41.887Z,9.80
2022-10-13T02:25:09.125Z,11.07
2022-10-13T02:27:35.659Z,10.10
2022-10-13T02:30:02.266Z,8.60
2022-10-13T02:32:30.710Z,8.87
2022-10-13T02:34:57.499Z,10.83
2022-10-13T02:37:25.727Z,9.20
2022-10-13T02:39:52.808Z,9.00
2022-10-13T02:42:19.906Z,12.77
2022-10-13T02:44:46.590Z,9.57
2022-10-13T02:47:13.355Z,8.97
2022-10-13T02:49:39.911Z,8.03
2022-10-13T02:52:07.752Z,9.47
2022-10-13T02:54:41.798Z,10.60
2022-10-13T02:57:08.300Z,9.20
2022-10-13T02:59:34.917Z,9.10
2022-10-13T03:02:01.475Z,9.47
2022-10-13T03:04:28.198Z,8.77
2022-10-13T03:06:59.083Z,7.53
2022-10-13T03:09:25.763Z,8.90
2022-10-13T03:11:52.380Z,10.07
2022-10-13T03:14:19.122Z,6.33
2022-10-13T03:16:45.667Z,11.30
2022-10-13T03:19:12.997Z,11.80
2022-10-13T03:21:39.808Z,9.10
2022-10-13T03:24:06.646Z,8.80
2022-10-13T03:26:34.985Z,7.40
2022-10-13T03:29:01.665Z,8.17
2022-10-13T03:31:28.230Z,7.30
2022-10-13T03:34:02.076Z,7.37
2022-10-13T03:36:28.601Z,7.90
2022-10-13T03:38:55.145Z,7.70
2022-10-13T03:41:22.503Z,9.23
2022-10-13T03:43:51.908Z,7.53
2022-10-13T03:46:19.141Z,7.23
2022-10-13T03:48:47.717Z,8.43
2022-10-13T03:51:17.266Z,8.17
2022-10-13T03:53:49.504Z,9.33
2022-10-13T03:56:19.682Z,8.20
2022-10-13T03:58:56.606Z,7.13
2022-10-13T04:01:25.665Z,10.77
2022-10-13T04:03:53.970Z,8.60
2022-10-13T04:06:20.725Z,9.50
2022-10-13T04:08:47.334Z,10.07
2022-10-13T04:11:15.345Z,9.47
2022-10-13T04:13:43.390Z,8.57
2022-10-13T04:16:21.407Z,8.90
2022-10-13T04:18:53.294Z,8.50
2022-10-13T04:21:20.262Z,11.03
2022-10-13T04:23:47.099Z,10.20
2022-10-13T04:26:20.351Z,9.87
2022-10-13T04:28:48.625Z,15.03
2022-10-13T04:31:15.230Z,9.27
2022-10-13T04:33:41.794Z,9.50
2022-10-13T04:36:11.556Z,10.17
2022-10-13T04:38:38.690Z,9.73
2022-10-13T04:41:06.542Z,10.13
2022-10-13T04:43:33.800Z,7.70
2022-10-13T04:46:13.956Z,12.03
2022-10-13T04:48:41.434Z,10.10
2022-10-13T04:51:13.676Z,8.77
2022-10-13T04:53:44.218Z,8.23
2022-10-13T04:56:15.860Z,13.23
2022-10-13T04:58:44.243Z,8.90
2022-10-13T05:01:21.538Z,8.23
2022-10-13T05:03:53.327Z,8.80
2022-10-13T05:06:23.235Z,9.50
2022-10-13T05:08:56.066Z,8.73
2022-10-13T05:11:24.484Z,9.53
2022-10-13T05:13:51.227Z,11.20
2022-10-13T05:16:19.185Z,7.80
2022-10-13T05:18:45.828Z,6.83
2022-10-13T05:21:27.646Z,8.20
2022-10-13T05:23:56.046Z,8.47
2022-10-13T05:26:28.984Z,10.80
2022-10-13T05:29:00.157Z,10.97
2022-10-13T05:31:31.767Z,10.27
2022-10-13T05:33:59.826Z,8.60
2022-10-13T05:36:34.660Z,8.60
2022-10-13T05:39:04.557Z,7.93
2022-10-13T05:41:31.089Z,9.50
2022-10-13T05:44:01.519Z,8.57
2022-10-13T05:46:28.465Z,8.60
2022-10-13T05:48:55.151Z,7.67
2022-10-13T05:51:26.795Z,9.87
2022-10-13T05:54:00.904Z,10.97
2022-10-13T05:56:32.568Z,11.57
2022-10-13T05:59:02.209Z,11.63
2022-10-13T06:01:32.803Z,7.57
2022-10-13T06:04:04.686Z,8.87
2022-10-13T06:06:31.793Z,7.60
2022-10-13T06:08:59.918Z,7.50
2022-10-13T06:11:32.328Z,7.60
2022-10-13T06:13:58.883Z,7.47
2022-10-13T06:16:25.703Z,8.90
2022-10-13T06:18:52.785Z,8.23
2022-10-13T06:21:19.295Z,8.33
2022-10-13T06:23:45.963Z,8.97
2022-10-13T06:26:12.498Z,8.90
2022-10-13T06:28:39.150Z,7.87
2022-10-13T06:31:06.634Z,9.03
2022-10-13T06:33:33.698Z,10.43
2022-10-13T06:36:04.965Z,8.63
2022-10-13T06:38:32.739Z,10.30
2022-10-13T06:41:04.671Z,11.13
2022-10-13T06:43:38.922Z,9.83
2022-10-13T06:46:09.937Z,9.53
2022-10-13T06:48:36.674Z,9.67
2022-10-13T06:51:08.273Z,14.57
2022-10-13T06:53:35.928Z,10.67
2022-10-13T06:56:05.186Z,10.80
2022-10-13T06:58:31.914Z,12.87
2022-10-13T07:00:58.445Z,11.73
2022-10-13T07:03:26.019Z,10.80
2022-10-13T07:05:53.298Z,14.10
2022-10-13T07:08:20.726Z,10.93
2022-10-13T07:10:47.414Z,10.57
2022-10-13T07:13:13.995Z,12.70
2022-10-13T07:15:40.964Z,11.17
2022-10-13T07:18:07.949Z,10.23
2022-10-13T07:20:34.963Z,11.90
2022-10-13T07:23:02.029Z,11.33
2022-10-13T07:25:28.699Z,10.37
2022-10-13T07:27:55.521Z,10.63
2022-10-13T07:30:22.461Z,10.33
2022-10-13T07:32:49.121Z,10.90
2022-10-13T07:35:15.906Z,10.23
2022-10-13T07:37:42.412Z,12.87
2022-10-13T07:40:09.546Z,11.33
2022-10-13T07:42:36.023Z,10.30
2022-10-13T07:45:02.894Z,16.40
2022-10-13T07:47:30.361Z,10.00
2022-10-13T07:49:56.928Z,11.73
2022-10-13T07:52:23.492Z,12.30
2022-10-13T07:54:50.626Z,14.13
2022-10-13T07:57:17.443Z,12.70
2022-10-13T07:59:44.147Z,9.77
2022-10-13T08:02:12.983Z,18.10
2022-10-13T08:04:39.713Z,11.07
2022-10-13T08:07:06.664Z,15.37
2022-10-13T08:09:33.394Z,17.47
2022-10-13T08:12:01.707Z,13.90
2022-10-13T08:14:29.432Z,13.40
2022-10-13T08:16:57.130Z,13.67
2022-10-13T08:19:26.351Z,12.87
2022-10-13T08:21:58.311Z,16.47
2022-10-13T08:24:26.372Z,15.40
2022-10-13T08:26:53.278Z,14.60
2022-10-13T08:29:22.539Z,14.77
2022-10-13T08:31:50.579Z,16.93
2022-10-13T08:34:17.254Z,16.70
2022-10-13T08:36:43.875Z,17.23
2022-10-13T08:39:10.996Z,16.93
2022-10-13T08:41:41.006Z,13.43
2022-10-13T08:47:27.253Z,12.27
2022-10-13T08:49:59.998Z,18.77
2022-10-13T08:52:29.505Z,15.33
2022-10-13T08:54:57.165Z,16.70
2022-10-13T08:57:24.285Z,14.87
2022-10-13T08:59:52.422Z,17.00
2022-10-13T09:02:26.440Z,21.50
2022-10-13T09:04:53.762Z,20.13
2022-10-13T09:07:40.636Z,24.30
2022-10-13T09:10:09.531Z,19.47
2022-10-13T09:12:36.119Z,22.63
2022-10-13T09:15:09.848Z,18.03
2022-10-13T09:17:39.455Z,26.03
2022-10-13T09:20:22.684Z,19.07
2022-10-13T09:23:19.086Z,19.00
2022-10-13T09:25:51.218Z,16.20
2022-10-13T09:28:25.739Z,19.23
2022-10-13T09:31:23.149Z,15.57
2022-10-13T09:34:30.264Z,11.60
2022-10-13T09:37:06.007Z,11.33
2022-10-13T09:39:34.110Z,16.73
2022-10-13T09:42:33.194Z,13.60
2022-10-13T09:45:13.280Z,14.40
2022-10-13T09:47:40.315Z,20.00
2022-10-13T09:50:18.797Z,21.90
2022-10-13T09:52:47.544Z,18.30
2022-10-13T09:55:35.948Z,11.53
2022-10-13T09:58:28.320Z,13.70
2022-10-13T10:00:57.533Z,11.00
2022-10-13T10:03:37.328Z,11.77
2022-10-13T10:06:07.670Z,15.20
2022-10-13T10:09:03.176Z,15.90
2022-10-13T10:11:35.251Z,11.00
2022-10-13T10:14:19.428Z,12.40
2022-10-13T10:16:57.266Z,13.80
2022-10-13T10:20:02.155Z,10.87
2022-10-13T10:22:43.658Z,15.40
2022-10-13T10:25:16.849Z,12.43
2022-10-13T10:27:59.966Z,11.17
2022-10-13T10:30:31.185Z,10.23
2022-10-13T10:33:13.491Z,15.53
2022-10-13T10:35:50.352Z,10.40
2022-10-13T10:38:43.255Z,7.80
2022-10-13T10:41:37.735Z,10.00
2022-10-13T10:44:14.836Z,11.07
2022-10-13T10:46:48.642Z,12.70
2022-10-13T10:49:36.605Z,9.83
2022-10-13T10:52:08.429Z,9.67
2022-10-13T10:54:55.930Z,10.40
2022-10-13T10:58:04.246Z,10.33
2022-10-13T11:00:41.514Z,11.07
2022-10-13T11:03:35.022Z,11.30
2022-10-13T11:06:20.959Z,8.83
2022-10-13T11:08:49.271Z,13.20
2022-10-13T11:11:26.654Z,10.23
2022-10-13T11:13:54.502Z,10.40
2022-10-13T11:17:10.709Z,9.83
2022-10-13T11:19:40.619Z,10.63
2022-10-13T11:22:07.057Z,8.27
2022-10-13T11:24:37.338Z,10.80
2022-10-13T11:27:11.445Z,15.73
2022-10-13T11:29:47.223Z,9.50
2022-10-13T11:32:26.086Z,15.63
2022-10-13T11:35:18.506Z,8.63
2022-10-13T11:38:15.291Z,11.50
2022-10-13T11:41:19.641Z,9.07
2022-10-13T11:43:57.735Z,12.90
2022-10-13T11:46:46.275Z,9.73
2022-10-13T11:49:24.209Z,7.53
2022-10-13T11:52:06.621Z,6.83
2022-10-13T11:54:40.352Z,9.90
2022-10-13T11:57:27.305Z,7.13
2022-10-13T11:59:56.068Z,8.97
2022-10-13T12:02:28.477Z,10.40
2022-10-13T12:05:23.605Z,9.70
2022-10-13T12:07:53.099Z,10.90
2022-10-13T12:10:28.184Z,9.50
2022-10-13T12:12:54.729Z,8.57
2022-10-13T12:15:33.992Z,9.50
2022-10-13T12:18:01.257Z,12.43
2022-10-13T12:20:32.629Z,8.07
2022-10-13T12:25:29.589Z,13.20
2022-10-13T12:28:00.760Z,10.00
2022-10-13T12:30:36.949Z,10.90
2022-10-13T12:33:17.585Z,11.60
2022-10-13T12:35:44.124Z,7.13
2022-10-13T12:38:19.759Z,7.10
2022-10-13T12:40:49.809Z,9.73
2022-10-13T12:43:20.233Z,9.00
2022-10-13T12:45:48.792Z,9.73
2022-10-13T12:48:35.242Z,9.17
2022-10-13T12:51:18.872Z,8.50
2022-10-13T12:53:46.521Z,10.93
2022-10-13T12:56:27.619Z,11.00
2022-10-13T12:58:55.138Z,9.70
2022-10-13T13:01:31.322Z,10.57
2022-10-13T13:04:15.044Z,9.00
2022-10-13T13:06:52.864Z,9.87
2022-10-13T13:09:24.294Z,13.53
2022-10-13T13:12:12.511Z,7.97
2022-10-13T13:14:43.972Z,10.60
2022-10-13T13:17:17.553Z,11.07
2022-10-13T13:19:55.514Z,10.97
2022-10-13T13:22:22.444Z,12.20
2022-10-13T13:24:52.432Z,10.07
2022-10-13T13:27:24.320Z,11.63
2022-10-13T13:29:51.389Z,8.80
2022-10-13T13:32:20.473Z,6.87
2022-10-13T13:34:47.207Z,12.67
2022-10-13T13:37:31.531Z,7.90
2022-10-13T13:39:58.729Z,7.80
2022-10-13T13:42:27.208Z,6.40
2022-10-13T13:44:53.852Z,10.33
2022-10-13T13:47:22.936Z,8.00
2022-10-13T13:49:51.965Z,9.00
2022-10-13T13:52:19.293Z,8.50
2022-10-13T13:54:46.276Z,14.70
2022-10-13T13:57:15.978Z,12.50
2022-10-13T13:59:43.319Z,8.47
2022-10-13T14:02:20.159Z,10.27
2022-10-13T14:04:47.390Z,7.63
2022-10-13T14:07:14.235Z,5.70
2022-10-13T14:09:41.571Z,10.33
2022-10-13T14:12:09.858Z,8.37
2022-10-13T14:14:36.419Z,9.00
2022-10-13T14:17:04.277Z,8.10
2022-10-13T14:19:32.224Z,12.73
2022-10-13T14:21:59.579Z,10.47
2022-10-13T14:24:26.106Z,9.67
2022-10-13T14:26:52.664Z,13.37
2022-10-13T14:29:19.252Z,9.83
2022-10-13T14:31:45.902Z,5.30
2022-10-13T14:34:12.410Z,12.50
2022-10-13T14:36:40.048Z,9.20
2022-10-13T14:39:06.617Z,12.10
2022-10-13T14:41:33.320Z,10.23
2022-10-13T14:43:59.872Z,14.30
2022-10-13T14:46:26.470Z,11.13
2022-10-13T14:48:54.847Z,6.63
2022-10-13T14:51:21.391Z,7.20
2022-10-13T14:53:47.968Z,6.87
2022-10-13T14:56:18.793Z,14.70
2022-10-13T14:58:50.798Z,10.03
2022-10-13T15:01:18.257Z,6.27
2022-10-13T15:03:45.169Z,16.07
2022-10-13T15:06:20.766Z,8.20
2022-10-13T15:08:48.655Z,8.40
2022-10-13T15:11:16.140Z,9.80
2022-10-13T15:13:42.786Z,20.30
2022-10-13T15:16:16.894Z,11.93
2022-10-13T15:18:43.620Z,7.97
2022-10-13T15:21:10.234Z,11.70
2022-10-13T15:23:36.873Z,9.00
2022-10-13T15:26:04.475Z,7.47
2022-10-13T15:28:36.158Z,12.50
2022-10-13T15:31:03.005Z,6.07
2022-10-13T15:33:29.772Z,9.73
2022-10-13T15:35:56.923Z,11.70
2022-10-13T15:38:23.973Z,4.33
2022-10-13T15:40:51.031Z,5.73
2022-10-13T15:43:18.066Z,8.80
2022-10-13T15:45:55.540Z,7.37
2022-10-13T15:48:22.433Z,6.77
2022-10-13T15:50:49.242Z,5.67
2022-10-13T15:53:15.925Z,4.90
2022-10-13T15:55:42.819Z,10.00
2022-10-13T15:58:13.679Z,5.60
2022-10-13T16:00:41.874Z,5.07
2022-10-13T16:03:15.341Z,6.27
2022-10-13T16:05:43.658Z,5.67
2022-10-13T16:08:10.580Z,10.70
2022-10-13T16:10:43.589Z,5.50
2022-10-13T16:13:14.469Z,4.50
2022-10-13T16:15:42.337Z,4.90
2022-10-13T16:18:09.304Z,5.43
2022-10-13T16:20:37.891Z,8.07
2022-10-13T16:23:05.093Z,6.47
2022-10-13T16:25:32.067Z,6.10
2022-10-13T16:28:01.867Z,4.50
2022-10-13T16:30:30.294Z,5.20
2022-10-13T16:32:57.777Z,5.23
2022-10-13T16:35:24.411Z,6.13
2022-10-13T16:37:50.976Z,4.93
2022-10-13T16:40:17.539Z,5.60
2022-10-13T16:42:44.958Z,5.00
2022-10-13T16:45:11.746Z,5.90
2022-10-13T16:47:38.390Z,3.97
2022-10-13T16:50:09.405Z,9.43
2022-10-13T16:52:37.349Z,5.67
2022-10-13T16:55:05.586Z,6.53
2022-10-13T16:57:32.713Z,9.50
2022-10-13T16:59:59.465Z,5.87
2022-10-13T17:02:28.580Z,7.10
2022-10-13T17:04:55.235Z,6.07
2022-10-13T17:07:22.099Z,6.70
2022-10-13T17:09:50.023Z,7.50
2022-10-13T17:12:16.640Z,9.10
2022-10-13T17:14:43.413Z,8.53
2022-10-13T17:17:10.211Z,11.43
2022-10-13T17:19:37.030Z,11.37
2022-10-13T17:22:03.723Z,13.37
2022-10-13T17:24:30.966Z,11.10
2022-10-13T17:26:57.597Z,14.70
2022-10-13T17:29:24.175Z,18.10
2022-10-13T17:31:53.337Z,11.33
2022-10-13T17:34:21.822Z,8.67
2022-10-13T17:36:51.197Z,7.27
2022-10-13T17:39:18.024Z,8.40
2022-10-13T17:41:44.762Z,6.20
2022-10-13T17:44:11.761Z,11.53
2022-10-13T17:46:39.780Z,5.83
2022-10-13T17:49:09.998Z,6.00
2022-10-13T17:51:36.762Z,7.50
2022-10-13T17:54:03.977Z,7.57
2022-10-13T17:56:30.719Z,8.23
2022-10-13T17:58:57.609Z,8.50
2022-10-13T18:01:33.975Z,7.97
2022-10-13T18:04:05.667Z,11.73
2022-10-13T18:06:38.578Z,14.20
2022-10-13T18:09:17.381Z,13.90
2022-10-13T18:11:49.830Z,12.17
2022-10-13T18:14:19.118Z,14.07
2022-10-13T18:16:49.276Z,16.13
2022-10-13T18:19:16.395Z,15.87
2022-10-13T18:21:43.263Z,13.80
2022-10-13T18:24:11.739Z,13.17
2022-10-13T18:26:38.594Z,15.50
2022-10-13T18:29:07.451Z,15.60
2022-10-13T18:31:37.070Z,11.70
2022-10-13T18:34:06.764Z,12.17
2022-10-13T18:36:42.611Z,14.70
2022-10-13T18:39:20.699Z,12.33
2022-10-13T18:41:50.634Z,14.77
2022-10-13T18:44:20.204Z,12.47
2022-10-13T18:46:52.670Z,8.50
2022-10-13T18:49:23.116Z,7.77
2022-10-13T18:51:51.526Z,7.70
2022-10-13T18:54:18.150Z,8.10
2022-10-13T18:57:01.898Z,7.97
2022-10-13T18:59:31.411Z,9.57
2022-10-13T19:02:06.006Z,6.50
2022-10-13T19:04:32.822Z,7.07
2022-10-13T19:07:05.849Z,8.80
2022-10-13T19:09:32.840Z,9.63
2022-10-13T19:11:59.537Z,9.17
2022-10-13T19:14:27.474Z,7.20
2022-10-13T19:17:00.854Z,8.17
2022-10-13T19:19:29.544Z,8.87
2022-10-13T19:21:57.712Z,8.67
2022-10-13T19:24:25.618Z,6.97
2022-10-13T19:26:52.664Z,10.10
2022-10-13T19:29:19.432Z,5.60
2022-10-13T19:31:46.230Z,6.40
2022-10-13T19:34:13.730Z,8.20
2022-10-13T19:36:43.657Z,8.97
2022-10-13T19:39:22.206Z,6.27
2022-10-13T19:41:51.629Z,5.83
2022-10-13T19:44:24.257Z,8.50
2022-10-13T19:46:58.700Z,6.30
2022-10-13T19:49:36.027Z,7.17
2022-10-13T19:52:14.651Z,7.23
2022-10-13T19:54:49.680Z,5.40
2022-10-13T19:57:30.638Z,9.40
2022-10-13T20:00:03.420Z,7.70
2022-10-13T20:02:45.210Z,11.47
2022-10-13T20:05:14.490Z,5.23
2022-10-13T20:07:45.687Z,5.73
2022-10-13T20:10:22.575Z,5.60
2022-10-13T20:12:52.345Z,8.03
2022-10-13T20:15:20.536Z,6.03
2022-10-13T20:17:53.448Z,7.93
2022-10-13T20:20:22.505Z,9.23
2022-10-13T20:22:52.618Z,6.20
2022-10-13T20:25:20.104Z,7.00
2022-10-13T20:28:00.717Z,8.40
2022-10-13T20:30:30.634Z,6.40
2022-10-13T20:32:57.589Z,7.00
2022-10-13T20:35:27.669Z,5.93
2022-10-13T20:37:57.665Z,6.67
2022-10-13T20:40:27.851Z,5.97
2022-10-13T20:43:05.874Z,8.10
2022-10-13T20:46:38.658Z,6.27
2022-10-13T20:49:09.880Z,6.17
2022-10-13T20:51:46.581Z,7.83
2022-10-13T21:00:28.791Z,9.50
2022-10-13T21:03:08.977Z,11.10
2022-10-13T21:06:01.837Z,8.63
2022-10-13T21:09:30.084Z,6.37
2022-10-13T21:11:51.214Z,11.37
2022-10-13T21:14:21.627Z,11.40
2022-10-13T21:16:48.396Z,10.73
2022-10-13T21:19:36.663Z,7.23
2022-10-13T21:22:17.903Z,6.53
2022-10-13T21:27:38.292Z,7.73
2022-10-13T21:30:15.780Z,6.37
2022-10-13T21:32:42.382Z,6.30
2022-10-13T21:35:09.689Z,6.70
2022-10-13T21:37:37.739Z,6.23
2022-10-13T21:40:09.360Z,7.40
2022-10-13T21:42:36.076Z,6.23
2022-10-13T21:45:03.297Z,8.77
2022-10-13T21:47:34.806Z,5.60
2022-10-13T21:50:08.541Z,8.40
2022-10-13T21:52:39.025Z,10.33
2022-10-13T21:55:10.019Z,11.10
2022-10-13T21:57:37.134Z,7.93
2022-10-13T22:00:05.776Z,7.20
2022-10-13T22:02:39.379Z,7.10
2022-10-13T22:05:10.563Z,10.20
2022-10-13T22:07:37.361Z,7.80
2022-10-13T22:10:04.514Z,10.63
2022-10-13T22:12:31.378Z,9.00
2022-10-13T22:14:58.091Z,12.30
2022-10-13T22:17:24.934Z,9.17
2022-10-13T22:19:51.652Z,10.57
2022-10-13T22:22:21.404Z,9.27
2022-10-13T22:24:50.632Z,13.03
2022-10-13T22:27:17.327Z,12.47
2022-10-13T22:29:43.866Z,13.23
2022-10-13T22:32:10.786Z,17.70
2022-10-13T22:34:37.457Z,10.40
2022-10-13T22:37:04.209Z,10.20
2022-10-13T22:39:31.200Z,5.70
2022-10-13T22:42:08.171Z,7.13
2022-10-13T22:44:35.410Z,7.33
2022-10-13T22:47:03.521Z,8.17
2022-10-13T22:49:37.327Z,7.50
2022-10-13T22:52:04.333Z,6.90
2022-10-13T22:54:32.495Z,8.47
2022-10-13T22:56:59.062Z,4.27
2022-10-13T22:59:27.368Z,5.43
2022-10-13T23:01:53.958Z,3.47
2022-10-13T23:04:20.542Z,2.50
2022-10-13T23:06:47.340Z,3.43
2022-10-13T23:09:14.357Z,5.27
2022-10-13T23:11:44.023Z,5.63
2022-10-13T23:14:17.862Z,4.10
2022-10-13T23:16:45.344Z,6.43
2022-10-13T23:19:11.891Z,6.20
2022-10-13T23:21:38.481Z,6.10
2022-10-13T23:24:06.742Z,5.83
2022-10-13T23:26:34.707Z,4.47
2022-10-13T23:29:01.729Z,7.03
2022-10-13T23:31:28.881Z,4.67
2022-10-13T23:33:55.930Z,5.17
2022-10-13T23:36:25.303Z,5.80
2022-10-13T23:39:06.738Z,3.90
2022-10-13T23:41:34.171Z,6.43
2022-10-13T23:44:00.964Z,7.83
2022-10-13T23:46:27.811Z,5.23
2022-10-13T23:48:54.583Z,5.20
2022-10-13T23:51:24.120Z,4.30
2022-10-13T23:53:51.396Z,5.70
2022-10-13T23:56:18.774Z,3.70
2022-10-13T23:58:45.606Z,3.80
